This is the latest recevied weather packets stored in our database for station/object DH6PF-10. If no packets are shown the sender has not sent any weather packets the latest 10 day(s).
| Time | Temp. | Humidity | Pressure | Rain* | Wind** | Luminosity | Snow |
|---|---|---|---|---|---|---|---|
| 1787625710 | 11.11° C | 90% | 1015.7 hPa | - | - | - | - |
| 1787625110 | 11.67° C | 89% | 1015.6 hPa | - | - | - | - |
| 1787624510 | 11.67° C | 88% | 1015.5 hPa | - | - | - | - |
| 1787623910 | 11.67° C | 88% | 1015.6 hPa | - | - | - | - |
| 1787623310 | 11.67° C | 87% | 1015.9 hPa | - | - | - | - |
| 1787622710 | 11.67° C | 87% | 1016.1 hPa | - | - | - | - |
| 1787622110 | 12.22° C | 87% | 1015.9 hPa | - | - | - | - |
| 1787620310 | 12.78° C | 84% | 1016.2 hPa | - | - | - | - |
| 1787619710 | 12.78° C | 83% | 1015.9 hPa | - | - | - | - |
| 1787619110 | 12.78° C | 82% | 1016 hPa | - | - | - | - |
| 1787618510 | 12.78° C | 81% | 1016.2 hPa | - | - | - | - |
| 1787617910 | 13.33° C | 80% | 1016.2 hPa | - | - | - | - |
| 1787617310 | 14.44° C | 77% | 1016.4 hPa | - | - | - | - |
| 1787616710 | 15° C | 73% | 1016.2 hPa | - | - | - | - |
| 1787616110 | 14.44° C | 73% | 1016.4 hPa | - | - | - | - |
| 1787615510 | 13.89° C | 77% | 1016.6 hPa | - | - | - | - |
| 1787614910 | 13.89° C | 76% | 1016.8 hPa | - | - | - | - |
| 1787614310 | 15° C | 72% | 1016.9 hPa | - | - | - | - |
| 1787613710 | 15.56° C | 70% | 1016.8 hPa | - | - | - | - |
| 1787613110 | 15.56° C | 69% | 1017 hPa | - | - | - | - |
| 1787612510 | 16.11° C | 67% | 1017 hPa | - | - | - | - |
| 1787611910 | 16.67° C | 66% | 1017 hPa | - | - | - | - |
| 1787611310 | 16.67° C | 65% | 1017.1 hPa | - | - | - | - |
| 1787610710 | 16.67° C | 65% | 1017.1 hPa | - | - | - | - |
| 1787610110 | 16.67° C | 64% | 1017 hPa | - | - | - | - |
* Rain since midnight (hover to see other rain measurements)
** Current wind speed in m/s (hover to see current wind gust speed)